Naha Airport
ROAH : now visible

Airfield :











YOU CAN JOIN US ON...

 
LOGIN :

Register | Disclaimer

   EN    FR    IT 

 









Legend :    VFR   Marginal VFR   IFR   Intensive IFR   Very Intensive IFR
Visi :
Ceiling :
>= 8 km
>= 3000ft
5 to 8 km
1000 to 3000 ft
1500m to 5 km
500 to 1000 ft
800 to 1500m
200 to 500 ft
< 800m
< 200 ft
Symbols :   Thunderstorms  Fog  Heavy snow  Heavy precipitations  Wind > 20 kt






- Airport Elevation : 12 ft
- IATA code : OKA


ROAH - Naha

CURRENT METAR :
  • 231830Z AUTO 22003KT 9999 BKN010 OVC014 25/25 Q1010 RMK A2982

EXPIRED METARs :
  • 231800Z AUTO 20005KT 9999 BKN010 BKN019 25/25 Q1010
  • 231730Z AUTO 20007KT 9999 BKN010 25/25 Q1009
  • 231700Z AUTO 18007KT 9999 FEW013 25/25 Q1010 RMK A2982
  • 231630Z AUTO 18007KT 9999 FEW016 25/25 Q1010 RMK A2983
  • 231600Z AUTO 19008KT 9999 FEW003 BKN020 BKN200 25/25 Q1010 RMK A2984
  • 231530Z AUTO 19009KT 9999 FEW003 BKN022 25/25 Q1011 RMK A2985
  • 231500Z AUTO 18007KT 9999 NSC 25/25 Q1011 RMK A2985
  • 231430Z AUTO 19006KT 9999 NSC 25/25 Q1011 RMK A2986
  • 231400Z AUTO 20005KT 9999 NSC 25/25 Q1011 RMK A2987

TAF TAF ROAH
Valid from the 23 at 18:00 until the 25 at 00:00 UTC


231716Z 2318/2500 19010KT 9999 FEW008 BKN012
TEMPO 2400/2409 4000 SHRA FEW006 BKN008 FEW020CB
BECMG 2404/2406 07004KT
RJJJ FIR / Asia



MET'MAP, your aeronautical weather chart ! - Copyright ORBIFLY December 2007 - Disclaimer

ORBIFLY MET'MAP TEAM :

Programming & Development : Alexandra Zaïnal
Original concept : Baudouin d'Aumeries
Technical & hardware support : Manuel Goepfert
Assistance : Marc-Olivier Méhu




SOURCES & CREDITS :

   NOAA       Earth
Advisory